Flight Track Log - Related Links

Times and Time Zones

All times are in EDT time to prevent confusion due to time zone crossing. See the SLI2300 flight status page for this flight to view local times or setup timezone preferences in your user account.


Time Position Orientation Groundspeed Altitude Reporting Facility
EDT Latitude Longitude Course Direction KTS MPH feet Rate Location/Type
Wed 10:58:32 AM 20.9937 -103.0348 29° Northeast  Level Estimated
Wed 10:59:32 AM 21.0790 -102.9847 29° Northeast  Level Estimated
Wed 11:00:32 AM 21.1642 -102.9345 29° Northeast  Level Estimated
Wed 11:01:32 AM 21.2494 -102.8842 29° Northeast  Level Estimated
Wed 11:02:32 AM 21.3346 -102.8339 29° Northeast  Level Estimated
Wed 11:03:32 AM 21.4198 -102.7836 29° Northeast  Level Estimated
Wed 11:04:32 AM 21.5050 -102.7332 29° Northeast  Level Estimated
Wed 11:05:32 AM 21.5901 -102.6827 29° Northeast  Level Estimated
Wed 11:06:32 AM 21.6753 -102.6321 29° Northeast  Level Estimated
Wed 11:07:32 AM 21.7604 -102.5815 29° Northeast  Level Estimated
Wed 11:08:32 AM 21.8455 -102.5309 29° Northeast  Level Estimated
Wed 11:09:32 AM 21.9306 -102.4802 29° Northeast  Level Estimated
Wed 11:10:32 AM 22.0157 -102.4294 29° Northeast  Level Estimated
Wed 11:11:32 AM 22.1007 -102.3785 29° Northeast  Level Estimated
Wed 11:12:32 AM 22.1858 -102.3277 29° Northeast  Level Estimated
Wed 11:13:32 AM 22.2708 -102.2767 29° Northeast  Level Estimated
Wed 11:14:32 AM 22.3558 -102.2257 29° Northeast  Level Estimated
Wed 11:15:32 AM 22.4408 -102.1746 29° Northeast  Level Estimated
Wed 11:16:32 AM 22.5258 -102.1234 29° Northeast  Level Estimated
Wed 11:17:32 AM 22.6108 -102.0722 29° Northeast  Level Estimated
Wed 11:18:32 AM 22.6957 -102.0209 29° Northeast  Level Estimated
Wed 11:19:32 AM 22.7806 -101.9696 29° Northeast  Level Estimated
Wed 11:20:32 AM 22.8655 -101.9182 29° Northeast  Level Estimated
Wed 11:21:32 AM 22.9505 -101.8667 29° Northeast  Level Estimated
Wed 11:22:32 AM 23.0353 -101.8152 29° Northeast  Level Estimated
Wed 11:23:32 AM 23.1202 -101.7636 29° Northeast  Level Estimated
Wed 11:24:32 AM 23.2050 -101.7119 29° Northeast  Level Estimated
Wed 11:25:32 AM 23.2899 -101.6602 29° Northeast  Level Estimated
Wed 11:26:32 AM 23.3747 -101.6084 29° Northeast  Level Estimated
Wed 11:27:32 AM 23.4595 -101.5566 29° Northeast  Level Estimated
Wed 11:28:32 AM 23.5443 -101.5046 29° Northeast  Level Estimated
Wed 11:29:32 AM 23.6290 -101.4526 29° Northeast  Level Estimated
Wed 11:30:32 AM 23.7138 -101.4006 29° Northeast  Level Estimated
Wed 11:31:32 AM 23.7985 -101.3484 29° Northeast  Level Estimated
Wed 11:32:32 AM 23.8832 -101.2962 29° Northeast  Level Estimated
Wed 11:33:32 AM 23.9679 -101.2440 29° Northeast  Level Estimated
Wed 11:34:32 AM 24.0526 -101.1917 29° Northeast  Level Estimated
Wed 11:35:32 AM 24.1373 -101.1393 29° Northeast  Level Estimated
Wed 11:36:32 AM 24.2219 -101.0868 29° Northeast  Level Estimated
Wed 11:37:32 AM 24.3065 -101.0342 30° Northeast  Level Estimated
Wed 11:38:32 AM 24.3911 -100.9816 30° Northeast  Level Estimated
Wed 11:39:32 AM 24.4757 -100.9289 30° Northeast  Level Estimated
Wed 11:40:32 AM 24.5603 -100.8762 30° Northeast  Level Estimated
Wed 11:41:32 AM 24.6448 -100.8234 30° Northeast  Level Estimated
Wed 11:42:32 AM 24.7294 -100.7705 30° Northeast  Level Estimated
Wed 11:43:32 AM 24.8139 -100.7175 30° Northeast  Level Estimated
Wed 11:44:32 AM 24.8984 -100.6645 30° Northeast  Level Estimated
Wed 11:45:32 AM 24.9829 -100.6114 30° Northeast  Level Estimated
Wed 11:46:32 AM 25.0673 -100.5582 30° Northeast  Level Estimated
Wed 11:47:32 AM 25.1518 -100.5049 30° Northeast  Level Estimated
Wed 11:48:32 AM 25.2362 -100.4516 30° Northeast  Level Estimated
Wed 11:49:32 AM 25.3206 -100.3982 30° Northeast  Level Estimated
Wed 11:50:32 AM 25.4050 -100.3447 30° Northeast  Level Estimated
Wed 11:51:32 AM 25.4893 -100.2911 30° Northeast  Level Estimated
Wed 11:52:32 AM 25.5737 -100.2375 30° Northeast  Level Estimated
Wed 11:53:32 AM 25.6580 -100.1838 30° Northeast  Level Estimated
Wed 11:54:32 AM 25.7423 -100.1300 30° Northeast  Level Estimated
Wed 11:55:32 AM 25.8266 -100.0761 210° Southwest  Level Estimated
Wed 11:56:32 AM 25.7423 -100.1300 30° Northeast  Level Estimated
Wed 11:57:32 AM 25.8266 -100.0761 210° Southwest  Level Estimated
Wed 11:58:32 AM 25.7423 -100.1300 30° Northeast  Level Estimated
Wed 11:59:32 AM 25.8266 -100.0761 210° Southwest  Level Estimated
Wed 12:00:32 PM 25.7423 -100.1300 30° Northeast  Level Estimated
Wed 12:01:32 PM 25.8266 -100.0761 210° Southwest  Level Estimated
Wed 12:02:32 PM 25.7423 -100.1300 30° Northeast  Level Estimated
Wed 12:03:32 PM 25.8266 -100.0761 210° Southwest  Level Estimated
Wed 12:04:32 PM 25.7423 -100.1300 30° Northeast  Level Estimated
Wed 12:05:32 PM 25.8266 -100.0761 210° Southwest  Level Estimated
Wed 12:06:32 PM 25.7423 -100.1300 30° Northeast  Level Estimated
Wed 12:07:32 PM 25.8266 -100.0761 210° Southwest  Level Estimated
Wed 12:08:32 PM 25.7423 -100.1300 30° Northeast  Level Estimated
Wed 12:09:32 PM 25.8266 -100.0761 210° Southwest  Level Estimated
Wed 12:10:32 PM 25.7423 -100.1300 210° Southwest  Level Estimated

Login

Don't have an account? Register now (free) for customized features, flight alerts, and more!